No particular awareness of the weather is required.    There are no Weather-warnings


Meteo18 Weather Cam more information Meteo18 Weather Cam


Thunder radar more information blitzortung!


Rain radar more information rain snow radar


Visit our other weather sites:

Template documentation
and downloads

And another site



Weather Underground History page Text

Daily Summary for December 7, 2017 Units:  Both    English   Metric
« Previous Day
Next Day »
Daily Weekly Monthly Yearly Custom
  High: Low: Average:
Temperature: 44.4 °F /  6.9 °C 28 °F /  -2.2 °C 35.6 °F /  2 °C
Dew Point: 43.7 °F /  6.5 °C 27.3 °F /  -2.6 °C 34.3 °F /  1.3 °C
Humidity: 98 % 86 % 95 %
Wind Speed: 17 mph /  27.4 km/h - 5.9 mph /  9.5 km/h
Wind Gust: 23 mph /  37.0 km/h - -
Wind:- - SSW
Pressure: 30.4 in /  1029.7 hPa 30 in /  1016.5 hPa -
Precipitation: 0.31 in /  7.9 mm    
Historical Graphs
 
 
Tabular Data for December 7, 2017
Time Temperature Dew Point Pressure Wind Wind Speed Wind Gust Humidity Rainfall Rate (Hourly)
00:02 33.6 °F /  0.9 °C 32.5 °F /  0.3 °C 30.4 in /  1029.7 hPa SSE 1 mph /  1.6 km/h 5 mph /  8.0 km/h 96 % 0 in /  0.0 mm
00:07 33.6 °F /  0.9 °C 32.4 °F /  0.2 °C 30.4 in /  1029.7 hPa SSE 1 mph /  1.6 km/h 5 mph /  8.0 km/h 95 % 0 in /  0.0 mm
00:12 33.6 °F /  0.9 °C 32.4 °F /  0.2 °C 30.4 in /  1029.7 hPa SSE 1 mph /  1.6 km/h 6 mph /  9.7 km/h 95 % 0 in /  0.0 mm
00:17 33.6 °F /  0.9 °C 32.5 °F /  0.3 °C 30.4 in /  1029.7 hPa Calm   6 mph /  9.7 km/h 96 % 0 in /  0.0 mm
00:22 33.4 °F /  0.8 °C 32.4 °F /  0.2 °C 30.4 in /  1029.7 hPa SE 1 mph /  1.6 km/h 7 mph /  11.3 km/h 96 % 0 in /  0.0 mm
00:27 33.4 °F /  0.8 °C 32.4 °F /  0.2 °C 30.4 in /  1029.7 hPa Calm   7 mph /  11.3 km/h 96 % 0 in /  0.0 mm
00:32 33.4 °F /  0.8 °C 32.4 °F /  0.2 °C 30.4 in /  1029.3 hPa SSE 1 mph /  1.6 km/h 4 mph /  6.4 km/h 96 % 0 in /  0.0 mm
00:42 33.4 °F /  0.8 °C 32.4 °F /  0.2 °C 30.4 in /  1029.3 hPa SSE 2 mph /  3.2 km/h 4 mph /  6.4 km/h 96 % 0 in /  0.0 mm
00:47 33.4 °F /  0.8 °C 32.4 °F /  0.2 °C 30.4 in /  1029.3 hPa Calm   5 mph /  8.0 km/h 96 % 0 in /  0.0 mm
00:52 33.4 °F /  0.8 °C 32.4 °F /  0.2 °C 30.4 in /  1029.3 hPa South 4 mph /  6.4 km/h 5 mph /  8.0 km/h 96 % 0 in /  0.0 mm
00:57 33.4 °F /  0.8 °C 32.4 °F /  0.2 °C 30.4 in /  1029.3 hPa SSW 1 mph /  1.6 km/h 5 mph /  8.0 km/h 96 % 0 in /  0.0 mm
01:02 33.3 °F /  0.7 °C 32.2 °F /  0.1 °C 30.4 in /  1029.3 hPa SSW 2 mph /  3.2 km/h 4 mph /  6.4 km/h 96 % 0 in /  0.0 mm
01:07 33.3 °F /  0.7 °C 32.2 °F /  0.1 °C 30.4 in /  1029.3 hPa SSW 2 mph /  3.2 km/h 4 mph /  6.4 km/h 96 % 0 in /  0.0 mm
01:12 33.1 °F /  0.6 °C 32 °F /  0.0 °C 30.4 in /  1029.3 hPa SSE 3 mph /  4.8 km/h 4 mph /  6.4 km/h 96 % 0 in /  0.0 mm
01:17 32.9 °F /  0.5 °C 31.8 °F /  -0.1 °C 30.4 in /  1029.3 hPa SSW 2 mph /  3.2 km/h 4 mph /  6.4 km/h 96 % 0 in /  0.0 mm
01:22 32.9 °F /  0.5 °C 31.8 °F /  -0.1 °C 30.4 in /  1029.3 hPa South 2 mph /  3.2 km/h 4 mph /  6.4 km/h 96 % 0 in /  0.0 mm
01:27 32.7 °F /  0.4 °C 31.6 °F /  -0.2 °C 30.4 in /  1029.3 hPa South 2 mph /  3.2 km/h 4 mph /  6.4 km/h 96 % 0 in /  0.0 mm
01:37 32.7 °F /  0.4 °C 31.6 °F /  -0.2 °C 30.4 in /  1029.0 hPa SSW 3 mph /  4.8 km/h 6 mph /  9.7 km/h 96 % 0 in /  0.0 mm
01:42 32.7 °F /  0.4 °C 31.6 °F /  -0.2 °C 30.4 in /  1029.0 hPa SSE 1 mph /  1.6 km/h 5 mph /  8.0 km/h 96 % 0 in /  0.0 mm
01:47 32.5 °F /  0.3 °C 31.5 °F /  -0.3 °C 30.4 in /  1029.0 hPa SSE 5 mph /  8.0 km/h 5 mph /  8.0 km/h 96 % 0 in /  0.0 mm
01:52 32.5 °F /  0.3 °C 31.5 °F /  -0.3 °C 30.4 in /  1028.7 hPa South 4 mph /  6.4 km/h 6 mph /  9.7 km/h 96 % 0 in /  0.0 mm
02:02 32.4 °F /  0.2 °C 31.3 °F /  -0.4 °C 30.4 in /  1028.7 hPa South 4 mph /  6.4 km/h 6 mph /  9.7 km/h 96 % 0 in /  0.0 mm
02:12 32 °F /  0.0 °C 30.9 °F /  -0.6 °C 30.4 in /  1028.7 hPa SSE 1 mph /  1.6 km/h 6 mph /  9.7 km/h 96 % 0 in /  0.0 mm
02:17 32 °F /  0.0 °C 30.9 °F /  -0.6 °C 30.4 in /  1028.7 hPa SE 2 mph /  3.2 km/h 6 mph /  9.7 km/h 96 % 0 in /  0.0 mm
02:22 31.8 °F /  -0.1 °C 30.7 °F /  -0.7 °C 30.4 in /  1028.7 hPa SSE 3 mph /  4.8 km/h 6 mph /  9.7 km/h 96 % 0 in /  0.0 mm
02:27 31.8 °F /  -0.1 °C 30.7 °F /  -0.7 °C 30.4 in /  1028.7 hPa SSE 2 mph /  3.2 km/h 5 mph /  8.0 km/h 96 % 0 in /  0.0 mm
02:32 31.8 °F /  -0.1 °C 30.7 °F /  -0.7 °C 30.4 in /  1028.7 hPa SSE 1 mph /  1.6 km/h 4 mph /  6.4 km/h 96 % 0 in /  0.0 mm
02:37 31.8 °F /  -0.1 °C 30.7 °F /  -0.7 °C 30.4 in /  1028.7 hPa South 1 mph /  1.6 km/h 4 mph /  6.4 km/h 96 % 0 in /  0.0 mm
02:42 31.8 °F /  -0.1 °C 30.7 °F /  -0.7 °C 30.4 in /  1028.7 hPa Calm   4 mph /  6.4 km/h 96 % 0 in /  0.0 mm
02:47 31.8 °F /  -0.1 °C 30.7 °F /  -0.7 °C 30.4 in /  1028.7 hPa SSE 1 mph /  1.6 km/h 4 mph /  6.4 km/h 96 % 0 in /  0.0 mm
02:52 31.6 °F /  -0.2 °C 30.6 °F /  -0.8 °C 30.4 in /  1028.7 hPa SSE 2 mph /  3.2 km/h 4 mph /  6.4 km/h 96 % 0 in /  0.0 mm
02:57 31.5 °F /  -0.3 °C 30.4 °F /  -0.9 °C 30.4 in /  1028.7 hPa SSW 2 mph /  3.2 km/h 5 mph /  8.0 km/h 96 % 0 in /  0.0 mm
03:02 31.5 °F /  -0.3 °C 30.4 °F /  -0.9 °C 30.4 in /  1028.7 hPa South 1 mph /  1.6 km/h 5 mph /  8.0 km/h 96 % 0 in /  0.0 mm
03:07 31.5 °F /  -0.3 °C 30.4 °F /  -0.9 °C 30.4 in /  1028.7 hPa Calm   5 mph /  8.0 km/h 96 % 0 in /  0.0 mm
03:12 31.5 °F /  -0.3 °C 30.4 °F /  -0.9 °C 30.4 in /  1028.7 hPa SSE 1 mph /  1.6 km/h 4 mph /  6.4 km/h 96 % 0 in /  0.0 mm
03:17 31.3 °F /  -0.4 °C 30.2 °F /  -1.0 °C 30.4 in /  1028.3 hPa Calm   3 mph /  4.8 km/h 96 % 0 in /  0.0 mm
03:22 31.3 °F /  -0.4 °C 30.2 °F /  -1.0 °C 30.4 in /  1028.3 hPa SSW 3 mph /  4.8 km/h 3 mph /  4.8 km/h 96 % 0 in /  0.0 mm
03:27 30.9 °F /  -0.6 °C 29.8 °F /  -1.2 °C 30.4 in /  1028.3 hPa SW 2 mph /  3.2 km/h 5 mph /  8.0 km/h 96 % 0 in /  0.0 mm
03:32 30.7 °F /  -0.7 °C 29.7 °F /  -1.3 °C 30.4 in /  1028.3 hPa SSW 1 mph /  1.6 km/h 5 mph /  8.0 km/h 96 % 0 in /  0.0 mm
03:42 30.4 °F /  -0.9 °C 29.3 °F /  -1.5 °C 30.4 in /  1028.0 hPa SSE 1 mph /  1.6 km/h 5 mph /  8.0 km/h 96 % 0 in /  0.0 mm
03:47 30.2 °F /  -1.0 °C 29.1 °F /  -1.6 °C 30.4 in /  1028.0 hPa SSE 1 mph /  1.6 km/h 5 mph /  8.0 km/h 96 % 0 in /  0.0 mm
03:57 30 °F /  -1.1 °C 29.3 °F /  -1.5 °C 30.4 in /  1028.0 hPa Calm   5 mph /  8.0 km/h 97 % 0 in /  0.0 mm
04:02 30 °F /  -1.1 °C 29.3 °F /  -1.5 °C 30.4 in /  1028.0 hPa Calm   5 mph /  8.0 km/h 97 % 0 in /  0.0 mm
04:07 30 °F /  -1.1 °C 29.3 °F /  -1.5 °C 30.4 in /  1028.0 hPa SSE 2 mph /  3.2 km/h 4 mph /  6.4 km/h 97 % 0 in /  0.0 mm
04:17 30.2 °F /  -1.0 °C 29.5 °F /  -1.4 °C 30.4 in /  1027.7 hPa SSW 2 mph /  3.2 km/h 2 mph /  3.2 km/h 97 % 0 in /  0.0 mm
04:22 30.2 °F /  -1.0 °C 29.5 °F /  -1.4 °C 30.4 in /  1027.7 hPa SSW 2 mph /  3.2 km/h 3 mph /  4.8 km/h 97 % 0 in /  0.0 mm
04:27 30 °F /  -1.1 °C 29.3 °F /  -1.5 °C 30.4 in /  1027.7 hPa SE 3 mph /  4.8 km/h 3 mph /  4.8 km/h 97 % 0 in /  0.0 mm
04:32 29.8 °F /  -1.2 °C 29.1 °F /  -1.6 °C 30.4 in /  1027.7 hPa Calm   4 mph /  6.4 km/h 97 % 0 in /  0.0 mm
04:37 29.8 °F /  -1.2 °C 29.1 °F /  -1.6 °C 30.4 in /  1027.7 hPa SSE 1 mph /  1.6 km/h 6 mph /  9.7 km/h 97 % 0 in /  0.0 mm
04:47 29.8 °F /  -1.2 °C 29.1 °F /  -1.6 °C 30.4 in /  1027.7 hPa Calm   6 mph /  9.7 km/h 97 % 0 in /  0.0 mm
04:52 29.8 °F /  -1.2 °C 29.1 °F /  -1.6 °C 30.4 in /  1027.7 hPa SW 3 mph /  4.8 km/h 4 mph /  6.4 km/h 97 % 0 in /  0.0 mm
05:02 29.8 °F /  -1.2 °C 29.1 °F /  -1.6 °C 30.4 in /  1027.7 hPa SSW 3 mph /  4.8 km/h 5 mph /  8.0 km/h 97 % 0 in /  0.0 mm
05:07 29.8 °F /  -1.2 °C 29.1 °F /  -1.6 °C 30.4 in /  1027.7 hPa SSW 2 mph /  3.2 km/h 5 mph /  8.0 km/h 97 % 0 in /  0.0 mm
05:12 29.8 °F /  -1.2 °C 29.1 °F /  -1.6 °C 30.4 in /  1027.7 hPa SW 3 mph /  4.8 km/h 5 mph /  8.0 km/h 97 % 0 in /  0.0 mm
05:17 29.8 °F /  -1.2 °C 29.1 °F /  -1.6 °C 30.4 in /  1027.7 hPa South 5 mph /  8.0 km/h 9 mph /  14.5 km/h 97 % 0 in /  0.0 mm
05:22 29.8 °F /  -1.2 °C 29.1 °F /  -1.6 °C 30.4 in /  1027.7 hPa SW 5 mph /  8.0 km/h 9 mph /  14.5 km/h 97 % 0 in /  0.0 mm
05:32 29.7 °F /  -1.3 °C 28.9 °F /  -1.7 °C 30.3 in /  1027.3 hPa SSW 4 mph /  6.4 km/h 7 mph /  11.3 km/h 97 % 0 in /  0.0 mm
05:37 29.5 °F /  -1.4 °C 28.8 °F /  -1.8 °C 30.3 in /  1027.3 hPa SSE 6 mph /  9.7 km/h 10 mph /  16.1 km/h 97 % 0 in /  0.0 mm
05:42 29.5 °F /  -1.4 °C 28.8 °F /  -1.8 °C 30.3 in /  1027.3 hPa SW 6 mph /  9.7 km/h 10 mph /  16.1 km/h 97 % 0 in /  0.0 mm
05:47 29.1 °F /  -1.6 °C 28.4 °F /  -2.0 °C 30.3 in /  1027.3 hPa SSW 3 mph /  4.8 km/h 11 mph /  17.7 km/h 97 % 0 in /  0.0 mm
05:52 29.1 °F /  -1.6 °C 28.4 °F /  -2.0 °C 30.3 in /  1027.3 hPa SSW 4 mph /  6.4 km/h 11 mph /  17.7 km/h 97 % 0 in /  0.0 mm
05:57 29.1 °F /  -1.6 °C 28.4 °F /  -2.0 °C 30.3 in /  1027.3 hPa SSW 2 mph /  3.2 km/h 11 mph /  17.7 km/h 97 % 0 in /  0.0 mm
06:02 28.9 °F /  -1.7 °C 28.2 °F /  -2.1 °C 30.3 in /  1027.3 hPa SW 4 mph /  6.4 km/h 10 mph /  16.1 km/h 97 % 0 in /  0.0 mm
06:07 28.8 °F /  -1.8 °C 28 °F /  -2.2 °C 30.3 in /  1027.3 hPa SW 8 mph /  12.9 km/h 12 mph /  19.3 km/h 97 % 0 in /  0.0 mm
06:12 28.6 °F /  -1.9 °C 27.9 °F /  -2.3 °C 30.3 in /  1027.3 hPa SW 5 mph /  8.0 km/h 12 mph /  19.3 km/h 97 % 0 in /  0.0 mm
06:17 28.6 °F /  -1.9 °C 27.9 °F /  -2.3 °C 30.3 in /  1027.3 hPa SW 9 mph /  14.5 km/h 12 mph /  19.3 km/h 97 % 0 in /  0.0 mm
06:22 28.6 °F /  -1.9 °C 27.9 °F /  -2.3 °C 30.3 in /  1027.3 hPa SW 9 mph /  14.5 km/h 12 mph /  19.3 km/h 97 % 0 in /  0.0 mm
06:32 28.6 °F /  -1.9 °C 27.9 °F /  -2.3 °C 30.3 in /  1027.3 hPa SSW 11 mph /  17.7 km/h 12 mph /  19.3 km/h 97 % 0 in /  0.0 mm
06:37 28.6 °F /  -1.9 °C 27.9 °F /  -2.3 °C 30.3 in /  1027.3 hPa SSW 7 mph /  11.3 km/h 11 mph /  17.7 km/h 97 % 0 in /  0.0 mm
06:42 28.4 °F /  -2.0 °C 27.7 °F /  -2.4 °C 30.3 in /  1027.0 hPa SW 7 mph /  11.3 km/h 13 mph /  20.9 km/h 97 % 0 in /  0.0 mm
06:47 28.2 °F /  -2.1 °C 27.5 °F /  -2.5 °C 30.3 in /  1027.0 hPa SW 4 mph /  6.4 km/h 13 mph /  20.9 km/h 97 % 0 in /  0.0 mm
06:52 28.4 °F /  -2.0 °C 27.7 °F /  -2.4 °C 30.3 in /  1027.0 hPa WSW 6 mph /  9.7 km/h 13 mph /  20.9 km/h 97 % 0 in /  0.0 mm
07:02 28.6 °F /  -1.9 °C 27.9 °F /  -2.3 °C 30.3 in /  1027.0 hPa SSW 4 mph /  6.4 km/h 9 mph /  14.5 km/h 97 % 0 in /  0.0 mm
07:07 28.6 °F /  -1.9 °C 27.9 °F /  -2.3 °C 30.3 in /  1027.0 hPa SW 10 mph /  16.1 km/h 10 mph /  16.1 km/h 97 % 0 in /  0.0 mm
07:12 28.2 °F /  -2.1 °C 27.5 °F /  -2.5 °C 30.3 in /  1027.0 hPa SW 6 mph /  9.7 km/h 11 mph /  17.7 km/h 97 % 0 in /  0.0 mm
07:17 28.2 °F /  -2.1 °C 27.5 °F /  -2.5 °C 30.3 in /  1027.0 hPa SW 8 mph /  12.9 km/h 11 mph /  17.7 km/h 97 % 0 in /  0.0 mm
07:22 28.2 °F /  -2.1 °C 27.5 °F /  -2.5 °C 30.3 in /  1027.3 hPa WSW 3 mph /  4.8 km/h 11 mph /  17.7 km/h 97 % 0 in /  0.0 mm
07:27 28.2 °F /  -2.1 °C 27.5 °F /  -2.5 °C 30.3 in /  1027.0 hPa SSW 6 mph /  9.7 km/h 9 mph /  14.5 km/h 97 % 0 in /  0.0 mm
07:32 28.2 °F /  -2.1 °C 27.5 °F /  -2.5 °C 30.3 in /  1027.0 hPa SW 6 mph /  9.7 km/h 9 mph /  14.5 km/h 97 % 0 in /  0.0 mm
07:42 28.2 °F /  -2.1 °C 27.5 °F /  -2.5 °C 30.3 in /  1027.0 hPa SW 4 mph /  6.4 km/h 9 mph /  14.5 km/h 97 % 0 in /  0.0 mm
07:47 28.4 °F /  -2.0 °C 27.7 °F /  -2.4 °C 30.3 in /  1027.0 hPa SW 3 mph /  4.8 km/h 8 mph /  12.9 km/h 97 % 0 in /  0.0 mm
07:52 28.6 °F /  -1.9 °C 27.9 °F /  -2.3 °C 30.3 in /  1027.0 hPa SSW 5 mph /  8.0 km/h 7 mph /  11.3 km/h 97 % 0 in /  0.0 mm
07:57 28.6 °F /  -1.9 °C 27.9 °F /  -2.3 °C 30.3 in /  1027.0 hPa SSW 2 mph /  3.2 km/h 9 mph /  14.5 km/h 97 % 0 in /  0.0 mm
08:02 28.6 °F /  -1.9 °C 27.9 °F /  -2.3 °C 30.3 in /  1027.0 hPa SSE 4 mph /  6.4 km/h 9 mph /  14.5 km/h 97 % 0 in /  0.0 mm
08:12 28.6 °F /  -1.9 °C 27.9 °F /  -2.3 °C 30.3 in /  1027.0 hPa SSW 4 mph /  6.4 km/h 9 mph /  14.5 km/h 97 % 0 in /  0.0 mm
08:22 28.4 °F /  -2.0 °C 27.7 °F /  -2.4 °C 30.3 in /  1027.0 hPa SW 8 mph /  12.9 km/h 10 mph /  16.1 km/h 97 % 0 in /  0.0 mm
08:27 28.4 °F /  -2.0 °C 27.7 °F /  -2.4 °C 30.3 in /  1027.0 hPa WSW 4 mph /  6.4 km/h 11 mph /  17.7 km/h 97 % 0 in /  0.0 mm
08:32 28.2 °F /  -2.1 °C 27.5 °F /  -2.5 °C 30.3 in /  1027.0 hPa South 5 mph /  8.0 km/h 11 mph /  17.7 km/h 97 % 0 in /  0.0 mm
08:42 28 °F /  -2.2 °C 27.3 °F /  -2.6 °C 30.3 in /  1027.0 hPa South 3 mph /  4.8 km/h 10 mph /  16.1 km/h 97 % 0 in /  0.0 mm
08:52 28 °F /  -2.2 °C 27.3 °F /  -2.6 °C 30.3 in /  1027.0 hPa SSW 1 mph /  1.6 km/h 8 mph /  12.9 km/h 97 % 0 in /  0.0 mm
08:57 28 °F /  -2.2 °C 27.3 °F /  -2.6 °C 30.3 in /  1027.0 hPa SSW 4 mph /  6.4 km/h 5 mph /  8.0 km/h 97 % 0 in /  0.0 mm
09:02 28.2 °F /  -2.1 °C 27.5 °F /  -2.5 °C 30.3 in /  1027.0 hPa SSW 5 mph /  8.0 km/h 9 mph /  14.5 km/h 97 % 0 in /  0.0 mm
09:07 28.4 °F /  -2.0 °C 27.7 °F /  -2.4 °C 30.3 in /  1027.0 hPa SSW 4 mph /  6.4 km/h 9 mph /  14.5 km/h 97 % 0 in /  0.0 mm
09:12 28.6 °F /  -1.9 °C 27.9 °F /  -2.3 °C 30.3 in /  1026.6 hPa SSW 4 mph /  6.4 km/h 9 mph /  14.5 km/h 97 % 0 in /  0.0 mm
09:17 28.4 °F /  -2.0 °C 27.7 °F /  -2.4 °C 30.3 in /  1027.0 hPa SSW 4 mph /  6.4 km/h 9 mph /  14.5 km/h 97 % 0 in /  0.0 mm
09:22 28.4 °F /  -2.0 °C 27.7 °F /  -2.4 °C 30.3 in /  1026.6 hPa SW 5 mph /  8.0 km/h 8 mph /  12.9 km/h 97 % 0 in /  0.0 mm
09:27 28.6 °F /  -1.9 °C 27.9 °F /  -2.3 °C 30.3 in /  1027.0 hPa SSW 6 mph /  9.7 km/h 8 mph /  12.9 km/h 97 % 0 in /  0.0 mm
09:32 28.6 °F /  -1.9 °C 27.9 °F /  -2.3 °C 30.3 in /  1026.6 hPa SW 5 mph /  8.0 km/h 8 mph /  12.9 km/h 97 % 0 in /  0.0 mm
09:42 28.6 °F /  -1.9 °C 27.9 °F /  -2.3 °C 30.3 in /  1026.6 hPa South 5 mph /  8.0 km/h 10 mph /  16.1 km/h 97 % 0 in /  0.0 mm
09:47 28.6 °F /  -1.9 °C 27.9 °F /  -2.3 °C 30.3 in /  1026.6 hPa SSW 4 mph /  6.4 km/h 10 mph /  16.1 km/h 97 % 0 in /  0.0 mm
09:52 28.8 °F /  -1.8 °C 28 °F /  -2.2 °C 30.3 in /  1026.6 hPa SW 4 mph /  6.4 km/h 8 mph /  12.9 km/h 97 % 0 in /  0.0 mm
09:57 28.9 °F /  -1.7 °C 28.2 °F /  -2.1 °C 30.3 in /  1026.6 hPa SSW 6 mph /  9.7 km/h 8 mph /  12.9 km/h 97 % 0 in /  0.0 mm
10:02 28.9 °F /  -1.7 °C 28.2 °F /  -2.1 °C 30.3 in /  1026.6 hPa SSW 6 mph /  9.7 km/h 9 mph /  14.5 km/h 97 % 0 in /  0.0 mm
10:12 29.1 °F /  -1.6 °C 28.4 °F /  -2.0 °C 30.3 in /  1026.6 hPa SW 5 mph /  8.0 km/h 9 mph /  14.5 km/h 97 % 0 in /  0.0 mm
10:17 28.9 °F /  -1.7 °C 28.2 °F /  -2.1 °C 30.3 in /  1026.6 hPa SSW 2 mph /  3.2 km/h 8 mph /  12.9 km/h 97 % 0 in /  0.0 mm
10:22 29.3 °F /  -1.5 °C 28.6 °F /  -1.9 °C 30.3 in /  1026.6 hPa SW 6 mph /  9.7 km/h 9 mph /  14.5 km/h 97 % 0 in /  0.0 mm
10:27 29.3 °F /  -1.5 °C 28.6 °F /  -1.9 °C 30.3 in /  1026.6 hPa South 6 mph /  9.7 km/h 9 mph /  14.5 km/h 97 % 0 in /  0.0 mm
10:32 29.3 °F /  -1.5 °C 28.6 °F /  -1.9 °C 30.3 in /  1026.6 hPa SSW 5 mph /  8.0 km/h 9 mph /  14.5 km/h 97 % 0 in /  0.0 mm
10:37 29.5 °F /  -1.4 °C 28.8 °F /  -1.8 °C 30.3 in /  1026.6 hPa SSW 3 mph /  4.8 km/h 10 mph /  16.1 km/h 97 % 0 in /  0.0 mm
10:42 29.5 °F /  -1.4 °C 28.8 °F /  -1.8 °C 30.3 in /  1026.6 hPa SSE 1 mph /  1.6 km/h 10 mph /  16.1 km/h 97 % 0 in /  0.0 mm
10:47 29.5 °F /  -1.4 °C 28.8 °F /  -1.8 °C 30.3 in /  1026.6 hPa SSW 8 mph /  12.9 km/h 10 mph /  16.1 km/h 97 % 0 in /  0.0 mm
10:52 29.7 °F /  -1.3 °C 28.9 °F /  -1.7 °C 30.3 in /  1026.3 hPa SSW 4 mph /  6.4 km/h 9 mph /  14.5 km/h 97 % 0 in /  0.0 mm
10:57 29.8 °F /  -1.2 °C 29.1 °F /  -1.6 °C 30.3 in /  1026.3 hPa SSW 5 mph /  8.0 km/h 9 mph /  14.5 km/h 97 % 0 in /  0.0 mm
11:02 30 °F /  -1.1 °C 29.3 °F /  -1.5 °C 30.3 in /  1026.3 hPa SW 8 mph /  12.9 km/h 9 mph /  14.5 km/h 97 % 0 in /  0.0 mm
11:12 30.7 °F /  -0.7 °C 30 °F /  -1.1 °C 30.3 in /  1026.0 hPa SSW 4 mph /  6.4 km/h 9 mph /  14.5 km/h 97 % 0 in /  0.0 mm
11:17 31.1 °F /  -0.5 °C 30.4 °F /  -0.9 °C 30.3 in /  1026.0 hPa South 2 mph /  3.2 km/h 9 mph /  14.5 km/h 97 % 0 in /  0.0 mm
11:22 31.6 °F /  -0.2 °C 31.1 °F /  -0.5 °C 30.3 in /  1026.0 hPa South 1 mph /  1.6 km/h 9 mph /  14.5 km/h 98 % 0 in /  0.0 mm
11:32 32.2 °F /  0.1 °C 31.6 °F /  -0.2 °C 30.3 in /  1026.0 hPa South 1 mph /  1.6 km/h 9 mph /  14.5 km/h 98 % 0 in /  0.0 mm
11:42 32.7 °F /  0.4 °C 32.2 °F /  0.1 °C 30.3 in /  1025.6 hPa SSW 6 mph /  9.7 km/h 9 mph /  14.5 km/h 98 % 0 in /  0.0 mm
11:47 32.9 °F /  0.5 °C 32.4 °F /  0.2 °C 30.3 in /  1025.3 hPa South 3 mph /  4.8 km/h 9 mph /  14.5 km/h 98 % 0 in /  0.0 mm
11:52 33.1 °F /  0.6 °C 32.5 °F /  0.3 °C 30.3 in /  1025.3 hPa SSW 3 mph /  4.8 km/h 9 mph /  14.5 km/h 98 % 0 in /  0.0 mm
12:02 33.6 °F /  0.9 °C 33.1 °F /  0.6 °C 30.3 in /  1024.9 hPa SSW 2 mph /  3.2 km/h 9 mph /  14.5 km/h 98 % 0 in /  0.0 mm
12:07 34.2 °F /  1.2 °C 33.6 °F /  0.9 °C 30.3 in /  1024.9 hPa SSW 6 mph /  9.7 km/h 10 mph /  16.1 km/h 98 % 0 in /  0.0 mm
12:12 34.5 °F /  1.4 °C 34 °F /  1.1 °C 30.3 in /  1024.9 hPa SW 8 mph /  12.9 km/h 10 mph /  16.1 km/h 98 % 0 in /  0.0 mm
12:17 35.1 °F /  1.7 °C 34.5 °F /  1.4 °C 30.3 in /  1024.9 hPa SSW 5 mph /  8.0 km/h 10 mph /  16.1 km/h 98 % 0 in /  0.0 mm
12:22 35.4 °F /  1.9 °C 34.9 °F /  1.6 °C 30.3 in /  1024.9 hPa SW 8 mph /  12.9 km/h 11 mph /  17.7 km/h 98 % 0 in /  0.0 mm
12:27 35.8 °F /  2.1 °C 35.2 °F /  1.8 °C 30.3 in /  1024.9 hPa SW 6 mph /  9.7 km/h 13 mph /  20.9 km/h 98 % 0 in /  0.0 mm
12:37 36.3 °F /  2.4 °C 35.8 °F /  2.1 °C 30.3 in /  1024.6 hPa SW 11 mph /  17.7 km/h 13 mph /  20.9 km/h 98 % 0 in /  0.0 mm
12:42 36.7 °F /  2.6 °C 36.1 °F /  2.3 °C 30.3 in /  1024.6 hPa SSW 12 mph /  19.3 km/h 15 mph /  24.1 km/h 98 % 0 in /  0.0 mm
12:47 37 °F /  2.8 °C 36.5 °F /  2.5 °C 30.3 in /  1024.3 hPa SSW 10 mph /  16.1 km/h 16 mph /  25.7 km/h 98 % 0 in /  0.0 mm
12:52 37.2 °F /  2.9 °C 36.7 °F /  2.6 °C 30.3 in /  1024.3 hPa SSW 8 mph /  12.9 km/h 16 mph /  25.7 km/h 98 % 0 in /  0.0 mm
12:57 37.6 °F /  3.1 °C 37 °F /  2.8 °C 30.3 in /  1024.3 hPa SSW 11 mph /  17.7 km/h 14 mph /  22.5 km/h 98 % 0 in /  0.0 mm
13:02 37.9 °F /  3.3 °C 37.4 °F /  3.0 °C 30.3 in /  1024.3 hPa WSW 10 mph /  16.1 km/h 14 mph /  22.5 km/h 98 % 0 in /  0.0 mm
13:07 38.5 °F /  3.6 °C 37.9 °F /  3.3 °C 30.2 in /  1023.9 hPa SSW 6 mph /  9.7 km/h 13 mph /  20.9 km/h 98 % 0 in /  0.0 mm
13:12 39 °F /  3.9 °C 38.3 °F /  3.5 °C 30.2 in /  1023.9 hPa SSW 6 mph /  9.7 km/h 15 mph /  24.1 km/h 97 % 0 in /  0.0 mm
13:17 39.6 °F /  4.2 °C 38.8 °F /  3.8 °C 30.2 in /  1023.6 hPa SW 10 mph /  16.1 km/h 15 mph /  24.1 km/h 97 % 0 in /  0.0 mm
13:22 39.7 °F /  4.3 °C 38.5 °F /  3.6 °C 30.2 in /  1023.6 hPa SSW 9 mph /  14.5 km/h 15 mph /  24.1 km/h 95 % 0 in /  0.0 mm
13:27 39.9 °F /  4.4 °C 38.3 °F /  3.5 °C 30.2 in /  1023.6 hPa SSW 9 mph /  14.5 km/h 14 mph /  22.5 km/h 94 % 0 in /  0.0 mm
13:32 40.1 °F /  4.5 °C 38.3 °F /  3.5 °C 30.2 in /  1023.2 hPa SSW 9 mph /  14.5 km/h 18 mph /  29.0 km/h 93 % 0 in /  0.0 mm
13:37 40.3 °F /  4.6 °C 38.1 °F /  3.4 °C 30.2 in /  1023.2 hPa SW 9 mph /  14.5 km/h 18 mph /  29.0 km/h 92 % 0 in /  0.0 mm
13:42 40.5 °F /  4.7 °C 38.3 °F /  3.5 °C 30.2 in /  1023.2 hPa SSW 6 mph /  9.7 km/h 16 mph /  25.7 km/h 92 % 0 in /  0.0 mm
13:52 40.8 °F /  4.9 °C 38.7 °F /  3.7 °C 30.2 in /  1022.9 hPa South 3 mph /  4.8 km/h 15 mph /  24.1 km/h 92 % 0 in /  0.0 mm
13:57 41.2 °F /  5.1 °C 39 °F /  3.9 °C 30.2 in /  1022.9 hPa SSW 6 mph /  9.7 km/h 12 mph /  19.3 km/h 92 % 0 in /  0.0 mm
14:07 41.5 °F /  5.3 °C 39.2 °F /  4.0 °C 30.2 in /  1022.9 hPa South 5 mph /  8.0 km/h 13 mph /  20.9 km/h 91 % 0 in /  0.0 mm
14:17 41.9 °F /  5.5 °C 39.2 °F /  4.0 °C 30.2 in /  1022.6 hPa SSW 8 mph /  12.9 km/h 14 mph /  22.5 km/h 90 % 0 in /  0.0 mm
14:22 41.9 °F /  5.5 °C 39.2 °F /  4.0 °C 30.2 in /  1022.6 hPa SSW 9 mph /  14.5 km/h 14 mph /  22.5 km/h 90 % 0 in /  0.0 mm
14:32 42.3 °F /  5.7 °C 39.2 °F /  4.0 °C 30.2 in /  1022.2 hPa SW 12 mph /  19.3 km/h 14 mph /  22.5 km/h 89 % 0 in /  0.0 mm
14:37 42.4 °F /  5.8 °C 39.4 °F /  4.1 °C 30.2 in /  1022.2 hPa SW 14 mph /  22.5 km/h 14 mph /  22.5 km/h 89 % 0 in /  0.0 mm
14:42 42.4 °F /  5.8 °C 39.4 °F /  4.1 °C 30.2 in /  1021.9 hPa SSW 7 mph /  11.3 km/h 17 mph /  27.4 km/h 89 % 0 in /  0.0 mm
14:47 42.6 °F /  5.9 °C 39.6 °F /  4.2 °C 30.2 in /  1021.9 hPa SSW 8 mph /  12.9 km/h 17 mph /  27.4 km/h 89 % 0 in /  0.0 mm
14:52 42.8 °F /  6.0 °C 39.7 °F /  4.3 °C 30.2 in /  1021.9 hPa SSW 10 mph /  16.1 km/h 17 mph /  27.4 km/h 89 % 0 in /  0.0 mm
14:57 43 °F /  6.1 °C 39.9 °F /  4.4 °C 30.2 in /  1021.9 hPa South 6 mph /  9.7 km/h 16 mph /  25.7 km/h 89 % 0 in /  0.0 mm
15:02 43.2 °F /  6.2 °C 40.1 °F /  4.5 °C 30.2 in /  1021.6 hPa South 8 mph /  12.9 km/h 14 mph /  22.5 km/h 89 % 0 in /  0.0 mm
15:22 43.5 °F /  6.4 °C 40.3 °F /  4.6 °C 30.2 in /  1021.2 hPa South 5 mph /  8.0 km/h 13 mph /  20.9 km/h 88 % 0 in /  0.0 mm
15:27 43.5 °F /  6.4 °C 40.3 °F /  4.6 °C 30.2 in /  1021.2 hPa SSW 8 mph /  12.9 km/h 13 mph /  20.9 km/h 88 % 0 in /  0.0 mm
15:32 43.5 °F /  6.4 °C 40.3 °F /  4.6 °C 30.2 in /  1021.2 hPa SSW 7 mph /  11.3 km/h 13 mph /  20.9 km/h 88 % 0 in /  0.0 mm
15:37 43.7 °F /  6.5 °C 40.1 °F /  4.5 °C 30.2 in /  1021.2 hPa SSW 6 mph /  9.7 km/h 13 mph /  20.9 km/h 87 % 0 in /  0.0 mm
15:42 43.9 °F /  6.6 °C 40.3 °F /  4.6 °C 30.2 in /  1021.2 hPa SW 8 mph /  12.9 km/h 13 mph /  20.9 km/h 87 % 0 in /  0.0 mm
15:52 43.9 °F /  6.6 °C 40.3 °F /  4.6 °C 30.2 in /  1020.9 hPa SSW 5 mph /  8.0 km/h 14 mph /  22.5 km/h 87 % 0 in /  0.0 mm
15:57 43.9 °F /  6.6 °C 40.3 °F /  4.6 °C 30.2 in /  1020.9 hPa SSW 11 mph /  17.7 km/h 14 mph /  22.5 km/h 87 % 0 in /  0.0 mm
16:02 44.1 °F /  6.7 °C 40.5 °F /  4.7 °C 30.1 in /  1020.5 hPa SW 5 mph /  8.0 km/h 14 mph /  22.5 km/h 87 % 0 in /  0.0 mm
16:07 44.1 °F /  6.7 °C 40.5 °F /  4.7 °C 30.1 in /  1020.5 hPa SSW 6 mph /  9.7 km/h 13 mph /  20.9 km/h 87 % 0 in /  0.0 mm
16:12 44.1 °F /  6.7 °C 40.5 °F /  4.7 °C 30.1 in /  1020.5 hPa SW 5 mph /  8.0 km/h 11 mph /  17.7 km/h 87 % 0 in /  0.0 mm
16:37 44.1 °F /  6.7 °C 40.5 °F /  4.7 °C 30.1 in /  1020.2 hPa SSW 5 mph /  8.0 km/h 9 mph /  14.5 km/h 87 % 0 in /  0.0 mm
16:42 44.1 °F /  6.7 °C 40.5 °F /  4.7 °C 30.1 in /  1020.2 hPa SSW 6 mph /  9.7 km/h 9 mph /  14.5 km/h 87 % 0 in /  0.0 mm
16:47 44.1 °F /  6.7 °C 40.5 °F /  4.7 °C 30.1 in /  1020.2 hPa SSW 8 mph /  12.9 km/h 9 mph /  14.5 km/h 87 % 0 in /  0.0 mm
16:57 44.2 °F /  6.8 °C 40.3 °F /  4.6 °C 30.1 in /  1019.9 hPa SSW 8 mph /  12.9 km/h 9 mph /  14.5 km/h 86 % 0 in /  0.0 mm
17:07 44.2 °F /  6.8 °C 40.3 °F /  4.6 °C 30.1 in /  1019.9 hPa SSW 6 mph /  9.7 km/h 10 mph /  16.1 km/h 86 % 0 in /  0.0 mm
17:12 44.2 °F /  6.8 °C 40.3 °F /  4.6 °C 30.1 in /  1019.9 hPa SSW 8 mph /  12.9 km/h 10 mph /  16.1 km/h 86 % 0 in /  0.0 mm
17:27 44.2 °F /  6.8 °C 40.6 °F /  4.8 °C 30.1 in /  1019.5 hPa SW 8 mph /  12.9 km/h 11 mph /  17.7 km/h 87 % 0 in /  0.0 mm
17:32 44.2 °F /  6.8 °C 40.3 °F /  4.6 °C 30.1 in /  1019.5 hPa SSW 6 mph /  9.7 km/h 11 mph /  17.7 km/h 86 % 0 in /  0.0 mm
17:47 44.2 °F /  6.8 °C 40.3 °F /  4.6 °C 30.1 in /  1019.5 hPa SW 9 mph /  14.5 km/h 12 mph /  19.3 km/h 86 % 0 in /  0.0 mm
17:52 44.2 °F /  6.8 °C 40.6 °F /  4.8 °C 30.1 in /  1019.5 hPa SSW 7 mph /  11.3 km/h 12 mph /  19.3 km/h 87 % 0 in /  0.0 mm
17:57 44.1 °F /  6.7 °C 40.5 °F /  4.7 °C 30.1 in /  1019.5 hPa SSW 7 mph /  11.3 km/h 12 mph /  19.3 km/h 87 % 0 in /  0.0 mm
18:02 43.9 °F /  6.6 °C 40.6 °F /  4.8 °C 30.1 in /  1019.2 hPa SW 6 mph /  9.7 km/h 11 mph /  17.7 km/h 88 % 0.01 in /  0.3 mm
18:12 43.5 °F /  6.4 °C 40.5 °F /  4.7 °C 30.1 in /  1019.2 hPa SW 6 mph /  9.7 km/h 12 mph /  19.3 km/h 89 % 0.02 in /  0.5 mm
18:17 43.5 °F /  6.4 °C 40.8 °F /  4.9 °C 30.1 in /  1019.2 hPa SW 5 mph /  8.0 km/h 12 mph /  19.3 km/h 90 % 0.02 in /  0.5 mm
18:22 43.5 °F /  6.4 °C 40.8 °F /  4.9 °C 30.1 in /  1019.2 hPa SSW 7 mph /  11.3 km/h 12 mph /  19.3 km/h 90 % 0.02 in /  0.5 mm
18:32 43.9 °F /  6.6 °C 40.8 °F /  4.9 °C 30.1 in /  1018.8 hPa SSW 7 mph /  11.3 km/h 12 mph /  19.3 km/h 89 % 0.03 in /  0.8 mm
18:42 43.5 °F /  6.4 °C 40.8 °F /  4.9 °C 30.1 in /  1018.8 hPa SSW 4 mph /  6.4 km/h 10 mph /  16.1 km/h 90 % 0.04 in /  1.0 mm
18:57 43.5 °F /  6.4 °C 40.8 °F /  4.9 °C 30.1 in /  1018.8 hPa SW 10 mph /  16.1 km/h 12 mph /  19.3 km/h 90 % 0.06 in /  1.5 mm
19:02 43.5 °F /  6.4 °C 40.8 °F /  4.9 °C 30.1 in /  1018.5 hPa SSW 9 mph /  14.5 km/h 13 mph /  20.9 km/h 90 % 0.05 in /  1.3 mm
19:17 43.7 °F /  6.5 °C 40.6 °F /  4.8 °C 30.1 in /  1018.2 hPa SW 11 mph /  17.7 km/h 15 mph /  24.1 km/h 89 % 0.06 in /  1.5 mm
19:22 43.7 °F /  6.5 °C 40.6 °F /  4.8 °C 30.1 in /  1018.5 hPa SSW 13 mph /  20.9 km/h 17 mph /  27.4 km/h 89 % 0.06 in /  1.5 mm
19:27 43.9 °F /  6.6 °C 40.8 °F /  4.9 °C 30.1 in /  1018.2 hPa SSW 8 mph /  12.9 km/h 18 mph /  29.0 km/h 89 % 0.07 in /  1.8 mm
19:37 44.1 °F /  6.7 °C 40.8 °F /  4.9 °C 30.1 in /  1018.2 hPa SW 14 mph /  22.5 km/h 20 mph /  32.2 km/h 88 % 0.08 in /  2.0 mm
19:52 43.7 °F /  6.5 °C 41 °F /  5.0 °C 30.1 in /  1018.2 hPa SW 17 mph /  27.4 km/h 22 mph /  35.4 km/h 90 % 0.08 in /  2.0 mm
19:57 43.5 °F /  6.4 °C 41 °F /  5.0 °C 30.1 in /  1018.2 hPa SW 12 mph /  19.3 km/h 23 mph /  37.0 km/h 91 % 0.08 in /  2.0 mm
20:02 43.5 °F /  6.4 °C 41.4 °F /  5.2 °C 30.1 in /  1018.2 hPa SW 12 mph /  19.3 km/h 23 mph /  37.0 km/h 92 % 0.08 in /  2.0 mm
20:07 43.3 °F /  6.3 °C 41.5 °F /  5.3 °C 30.1 in /  1018.2 hPa WSW 15 mph /  24.1 km/h 23 mph /  37.0 km/h 93 % 0.07 in /  1.8 mm
20:17 43.3 °F /  6.3 °C 41.5 °F /  5.3 °C 30.1 in /  1017.8 hPa SW 16 mph /  25.7 km/h 23 mph /  37.0 km/h 93 % 0.09 in /  2.3 mm
20:22 43.2 °F /  6.2 °C 41.4 °F /  5.2 °C 30.1 in /  1017.8 hPa SSW 12 mph /  19.3 km/h 23 mph /  37.0 km/h 93 % 0.09 in /  2.3 mm
20:27 43.2 °F /  6.2 °C 41.5 °F /  5.3 °C 30.1 in /  1017.8 hPa SW 11 mph /  17.7 km/h 20 mph /  32.2 km/h 94 % 0.09 in /  2.3 mm
20:32 43 °F /  6.1 °C 41.4 °F /  5.2 °C 30.1 in /  1017.8 hPa SW 11 mph /  17.7 km/h 20 mph /  32.2 km/h 94 % 0.09 in /  2.3 mm
20:42 43 °F /  6.1 °C 41.7 °F /  5.4 °C 30.1 in /  1017.8 hPa SSW 15 mph /  24.1 km/h 20 mph /  32.2 km/h 95 % 0.09 in /  2.3 mm
20:52 43 °F /  6.1 °C 41.9 °F /  5.5 °C 30.1 in /  1017.8 hPa SW 14 mph /  22.5 km/h 20 mph /  32.2 km/h 96 % 0.08 in /  2.0 mm
21:02 43 °F /  6.1 °C 41.9 °F /  5.5 °C 30.1 in /  1017.8 hPa SW 12 mph /  19.3 km/h 22 mph /  35.4 km/h 96 % 0.08 in /  2.0 mm
21:17 43.2 °F /  6.2 °C 42.1 °F /  5.6 °C 30.1 in /  1017.5 hPa WSW 15 mph /  24.1 km/h 21 mph /  33.8 km/h 96 % 0.07 in /  1.8 mm
21:22 43.2 °F /  6.2 °C 42.1 °F /  5.6 °C 30.1 in /  1017.5 hPa SW 11 mph /  17.7 km/h 21 mph /  33.8 km/h 96 % 0.06 in /  1.5 mm
21:37 43.2 °F /  6.2 °C 42.1 °F /  5.6 °C 30.1 in /  1017.5 hPa SW 14 mph /  22.5 km/h 20 mph /  32.2 km/h 96 % 0.06 in /  1.5 mm
21:47 43.2 °F /  6.2 °C 42.1 °F /  5.6 °C 30.1 in /  1017.5 hPa SW 11 mph /  17.7 km/h 20 mph /  32.2 km/h 96 % 0.07 in /  1.8 mm
21:52 43.2 °F /  6.2 °C 42.1 °F /  5.6 °C 30 in /  1017.2 hPa SW 12 mph /  19.3 km/h 18 mph /  29.0 km/h 96 % 0.06 in /  1.5 mm
21:57 43.2 °F /  6.2 °C 42.1 °F /  5.6 °C 30 in /  1017.2 hPa SSW 10 mph /  16.1 km/h 18 mph /  29.0 km/h 96 % 0.06 in /  1.5 mm
22:07 43.3 °F /  6.3 °C 42.6 °F /  5.9 °C 30 in /  1017.2 hPa SW 11 mph /  17.7 km/h 19 mph /  30.6 km/h 97 % 0.05 in /  1.3 mm
22:12 43.3 °F /  6.3 °C 42.6 °F /  5.9 °C 30 in /  1017.2 hPa WSW 17 mph /  27.4 km/h 20 mph /  32.2 km/h 97 % 0.05 in /  1.3 mm
22:17 43.3 °F /  6.3 °C 42.6 °F /  5.9 °C 30 in /  1016.8 hPa WSW 11 mph /  17.7 km/h 20 mph /  32.2 km/h 97 % 0.04 in /  1.0 mm
22:22 43.3 °F /  6.3 °C 42.6 °F /  5.9 °C 30 in /  1016.8 hPa SW 8 mph /  12.9 km/h 20 mph /  32.2 km/h 97 % 0.03 in /  0.8 mm
22:32 43.3 °F /  6.3 °C 42.6 °F /  5.9 °C 30 in /  1016.8 hPa SW 15 mph /  24.1 km/h 18 mph /  29.0 km/h 97 % 0.02 in /  0.5 mm
22:42 43.3 °F /  6.3 °C 42.6 °F /  5.9 °C 30 in /  1016.5 hPa WSW 13 mph /  20.9 km/h 19 mph /  30.6 km/h 97 % 0.02 in /  0.5 mm
22:57 43.5 °F /  6.4 °C 42.8 °F /  6.0 °C 30 in /  1016.8 hPa SW 10 mph /  16.1 km/h 19 mph /  30.6 km/h 97 % 0.01 in /  0.3 mm
23:02 43.7 °F /  6.5 °C 43 °F /  6.1 °C 30 in /  1016.5 hPa SW 13 mph /  20.9 km/h 19 mph /  30.6 km/h 97 % 0.02 in /  0.5 mm
23:07 43.7 °F /  6.5 °C 43 °F /  6.1 °C 30 in /  1016.5 hPa SW 14 mph /  22.5 km/h 19 mph /  30.6 km/h 97 % 0.02 in /  0.5 mm
23:12 43.7 °F /  6.5 °C 43 °F /  6.1 °C 30 in /  1016.8 hPa SW 9 mph /  14.5 km/h 17 mph /  27.4 km/h 97 % 0.02 in /  0.5 mm
23:17 43.7 °F /  6.5 °C 43 °F /  6.1 °C 30 in /  1016.5 hPa SW 9 mph /  14.5 km/h 18 mph /  29.0 km/h 97 % 0.02 in /  0.5 mm
23:22 43.9 °F /  6.6 °C 43.2 °F /  6.2 °C 30 in /  1016.5 hPa WSW 12 mph /  19.3 km/h 18 mph /  29.0 km/h 97 % 0.02 in /  0.5 mm
23:32 43.9 °F /  6.6 °C 43.2 °F /  6.2 °C 30 in /  1016.8 hPa SW 4 mph /  6.4 km/h 15 mph /  24.1 km/h 97 % 0.02 in /  0.5 mm
23:37 44.1 °F /  6.7 °C 43.3 °F /  6.3 °C 30 in /  1016.8 hPa WSW 9 mph /  14.5 km/h 14 mph /  22.5 km/h 97 % 0.01 in /  0.3 mm
23:42 44.1 °F /  6.7 °C 43.3 °F /  6.3 °C 30 in /  1017.2 hPa West 4 mph /  6.4 km/h 13 mph /  20.9 km/h 97 % 0.01 in /  0.3 mm
23:47 44.2 °F /  6.8 °C 43.5 °F /  6.4 °C 30 in /  1017.2 hPa SW 3 mph /  4.8 km/h 12 mph /  19.3 km/h 97 % 0.02 in /  0.5 mm
23:57 44.4 °F /  6.9 °C 43.7 °F /  6.5 °C 30 in /  1017.2 hPa WSW 6 mph /  9.7 km/h 10 mph /  16.1 km/h 97 % 0.02 in /  0.5 mm
Meteo18
Compliments of Weather Underground - 4 mb

Script developed by  Jim McMurry - jmcmurry@mwt.net Adapted for the template by  Wim van der Kuil - Leuven-Template.eu

You find our weather info also at:

European Weather Network

Weather Underground

Equipment we use:

Weather-station
Davis Vue

Weather-program
Meteohub

Weather-server
Raspberry PI 2 B+

Provider
1 and 1

Davis Vue

Meteohub

Raspberry PI 2 B+

1 and 1